Terminal Aerodrome Forecast
Issued by NWS Shreveport, LA

Home | Current Version | Previous Version | Text Only | Print | Product List | Glossary On
Versions: 1 2 3 4 5 6 7 8 9 10 11 12
000
FTUS44 KSHV 220520
TAFTXK
TAF
KTXK 220520Z 2206/2306 01006KT P6SM SKC
     FM221300 02010KT P6SM SKC
     FM222000 36006KT P6SM SCT250
     FM230000 02003KT P6SM SCT250=

USA.gov is the U.S. government's official web portal to all federal, state and local government web resources and services.